Time;durP1;ratioP1;P1;durP2;ratioP2;P2;SDS_P1;SDS_P2;PMS_P1;PMS_P2;Temp;Humidity;BMP_temperature;BMP_pressure;BME280_temperature;BME280_humidity;BME280_pressure;Samples;Min_cycle;Max_cycle;Signal;HPM_P1;HPM_P2
2021/08/17 00:01:49;;;;;;;8.43;6.53;;;;;;;;;;5077046;28;20067;-70
2021/08/17 00:04:15;;;;;;;8.02;6.75;;;;;;;;;;5073590;28;20055;-69
2021/08/17 00:06:41;;;;;;;7.50;6.65;;;;;;;;;;5073663;28;20492;-70
2021/08/17 00:09:07;;;;;;;12.80;7.05;;;;;;;;;;5076921;28;20036;-70
2021/08/17 00:11:34;;;;;;;11.65;7.03;;;;;;;;;;5074371;28;20537;-70
2021/08/17 00:14:00;;;;;;;8.43;6.90;;;;;;;;;;5071045;28;20047;-69
2021/08/17 00:16:26;;;;;;;11.63;6.43;;;;;;;;;;5073086;28;20040;-70
2021/08/17 00:18:52;;;;;;;8.13;6.05;;;;;;;;;;5071577;28;20043;-69
2021/08/17 00:21:18;;;;;;;11.38;6.68;;;;;;;;;;5070815;28;20024;-70
2021/08/17 00:23:44;;;;;;;9.38;6.28;;;;;;;;;;5071229;28;20132;-69
2021/08/17 00:26:11;;;;;;;9.55;6.20;;;;;;;;;;5071764;28;20077;-71
2021/08/17 00:28:37;;;;;;;13.52;6.25;;;;;;;;;;5068852;28;20037;-69
2021/08/17 00:31:03;;;;;;;10.98;5.82;;;;;;;;;;5073568;28;20028;-71
2021/08/17 00:33:30;;;;;;;10.65;6.05;;;;;;;;;;5074427;28;20594;-69
2021/08/17 00:35:56;;;;;;;8.70;6.15;;;;;;;;;;5068303;28;20131;-70
2021/08/17 00:38:23;;;;;;;11.55;6.22;;;;;;;;;;5070552;28;20560;-70
2021/08/17 00:40:49;;;;;;;15.00;6.78;;;;;;;;;;5072017;28;20498;-71
2021/08/17 00:43:15;;;;;;;9.80;6.28;;;;;;;;;;5070336;28;20024;-69
2021/08/17 00:45:42;;;;;;;9.20;6.30;;;;;;;;;;5068906;28;20163;-69
2021/08/17 00:48:08;;;;;;;10.15;5.80;;;;;;;;;;5070179;28;20606;-69
2021/08/17 00:50:35;;;;;;;10.52;5.97;;;;;;;;;;5070573;28;20049;-69
2021/08/17 00:53:02;;;;;;;9.55;6.72;;;;;;;;;;5072852;28;20121;-70
2021/08/17 00:55:28;;;;;;;12.00;6.78;;;;;;;;;;5070722;28;20033;-70
2021/08/17 00:57:55;;;;;;;8.98;6.63;;;;;;;;;;5069648;28;20393;-69
2021/08/17 01:00:21;;;;;;;10.27;7.05;;;;;;;;;;5070539;28;20028;-71
2021/08/17 01:02:47;;;;;;;9.20;6.78;;;;;;;;;;5069915;28;20024;-70
2021/08/17 01:05:15;;;;;;;10.25;6.57;;;;;;;;;;5068854;28;20038;-71
2021/08/17 01:07:41;;;;;;;20.42;8.73;;;;;;;;;;5073956;28;20028;-69
2021/08/17 01:10:09;;;;;;;10.05;7.38;;;;;;;;;;5069197;28;20044;-69
2021/08/17 01:12:36;;;;;;;9.48;7.10;;;;;;;;;;5069162;28;20024;-70
2021/08/17 01:15:02;;;;;;;11.82;7.10;;;;;;;;;;5073239;28;20047;-69
2021/08/17 01:17:29;;;;;;;10.63;6.95;;;;;;;;;;5072177;28;20066;-70
2021/08/17 01:19:55;;;;;;;10.93;6.78;;;;;;;;;;5068824;28;20127;-69
2021/08/17 01:22:21;;;;;;;11.57;6.65;;;;;;;;;;5067746;28;20028;-70
2021/08/17 01:24:47;;;;;;;10.48;6.43;;;;;;;;;;5073057;28;20035;-70
2021/08/17 01:27:14;;;;;;;8.10;5.75;;;;;;;;;;5071137;28;20021;-69
2021/08/17 01:29:41;;;;;;;8.60;6.07;;;;;;;;;;5067942;28;20022;-69
2021/08/17 01:32:07;;;;;;;8.75;5.90;;;;;;;;;;5070033;28;20419;-70
2021/08/17 01:34:34;;;;;;;8.80;6.32;;;;;;;;;;5075371;28;20024;-69
2021/08/17 01:37:00;;;;;;;6.43;5.63;;;;;;;;;;5068658;28;20153;-70
2021/08/17 01:39:26;;;;;;;9.48;6.22;;;;;;;;;;5068611;28;20031;-70
2021/08/17 01:41:52;;;;;;;7.35;5.80;;;;;;;;;;5073483;28;20047;-69
2021/08/17 01:44:18;;;;;;;9.25;5.85;;;;;;;;;;5067627;28;20032;-69
2021/08/17 01:46:45;;;;;;;8.05;6.25;;;;;;;;;;5070727;28;20021;-71
2021/08/17 01:49:12;;;;;;;7.90;5.68;;;;;;;;;;5074027;28;20434;-69
2021/08/17 01:51:38;;;;;;;8.43;6.68;;;;;;;;;;5071857;28;20044;-69
2021/08/17 01:54:06;;;;;;;8.35;5.90;;;;;;;;;;5068071;28;20097;-69
2021/08/17 01:56:32;;;;;;;8.82;6.47;;;;;;;;;;5068435;28;20549;-69
2021/08/17 01:58:59;;;;;;;8.50;5.97;;;;;;;;;;5071704;28;20028;-70
2021/08/17 02:01:25;;;;;;;7.88;5.88;;;;;;;;;;5068752;28;20043;-69
2021/08/17 02:03:52;;;;;;;9.10;5.93;;;;;;;;;;5067852;28;20023;-70
2021/08/17 02:06:18;;;;;;;14.45;6.88;;;;;;;;;;5068880;28;20025;-72
2021/08/17 02:08:44;;;;;;;8.38;7.00;;;;;;;;;;5068577;28;20024;-69
2021/08/17 02:11:10;;;;;;;12.10;6.38;;;;;;;;;;5072516;28;20042;-69
2021/08/17 02:13:36;;;;;;;13.95;6.57;;;;;;;;;;5069374;28;20047;-69
2021/08/17 02:16:03;;;;;;;9.55;6.32;;;;;;;;;;5074326;28;20035;-69
2021/08/17 02:18:30;;;;;;;11.68;6.43;;;;;;;;;;5068874;28;20111;-70
2021/08/17 02:21:00;;;;;;;7.95;6.60;;;;;;;;;;5067543;28;20036;-69
2021/08/17 02:23:26;;;;;;;9.50;6.90;;;;;;;;;;5069149;28;20020;-69
2021/08/17 02:25:53;;;;;;;9.07;6.65;;;;;;;;;;5071609;28;20051;-69
2021/08/17 02:28:20;;;;;;;8.77;6.75;;;;;;;;;;5071624;28;20040;-69
2021/08/17 02:30:49;;;;;;;9.65;6.80;;;;;;;;;;5068731;28;20024;-69
2021/08/17 02:33:16;;;;;;;8.18;6.28;;;;;;;;;;5075997;28;20063;-72
2021/08/17 02:35:42;;;;;;;11.90;6.70;;;;;;;;;;5066038;28;20081;-69
2021/08/17 02:38:09;;;;;;;7.78;6.80;;;;;;;;;;5067854;28;20028;-71
2021/08/17 02:40:35;;;;;;;15.32;7.28;;;;;;;;;;5070507;28;20032;-69
2021/08/17 02:43:02;;;;;;;10.93;6.75;;;;;;;;;;5068477;28;20497;-69
2021/08/17 02:45:28;;;;;;;10.18;6.75;;;;;;;;;;5067110;28;20043;-70
2021/08/17 02:47:58;;;;;;;14.75;7.95;;;;;;;;;;5069643;28;20028;-69
2021/08/17 02:50:24;;;;;;;13.55;8.48;;;;;;;;;;5068714;28;20421;-70
2021/08/17 02:52:50;;;;;;;12.00;7.10;;;;;;;;;;5069013;28;20387;-72
2021/08/17 02:55:16;;;;;;;9.13;7.50;;;;;;;;;;5068494;28;20087;-69
2021/08/17 02:57:56;;;;;;;12.38;8.23;;;;;;;;;;5066144;28;20013;-70
2021/08/17 03:00:23;;;;;;;13.13;8.45;;;;;;;;;;5069977;28;20121;-69
2021/08/17 03:02:49;;;;;;;8.85;7.97;;;;;;;;;;5068310;28;20027;-69
2021/08/17 03:05:16;;;;;;;10.52;7.97;;;;;;;;;;5060556;28;20035;-73
2021/08/17 03:08:05;;;;;;;8.88;7.35;;;;;;;;;;5068015;28;20038;-69
2021/08/17 03:10:32;;;;;;;11.95;8.68;;;;;;;;;;5066135;28;20035;-69
2021/08/17 03:12:58;;;;;;;8.85;7.95;;;;;;;;;;5063030;28;20077;-74
2021/08/17 03:15:25;;;;;;;10.60;9.18;;;;;;;;;;5063510;28;20048;-69
2021/08/17 03:17:51;;;;;;;12.00;8.95;;;;;;;;;;5060131;28;20020;-71
2021/08/17 03:20:19;;;;;;;9.00;8.10;;;;;;;;;;5065810;28;20574;-69
2021/08/17 03:22:45;;;;;;;9.60;8.55;;;;;;;;;;5061467;28;20031;-69
2021/08/17 03:25:13;;;;;;;9.73;8.70;;;;;;;;;;5064097;28;20077;-69
2021/08/17 03:27:39;;;;;;;8.80;8.00;;;;;;;;;;5061514;28;20085;-69
2021/08/17 03:30:09;;;;;;;9.18;8.00;;;;;;;;;;5065096;28;20020;-71
2021/08/17 03:32:36;;;;;;;9.87;8.77;;;;;;;;;;5064543;28;20064;-69
2021/08/17 03:35:02;;;;;;;10.68;8.13;;;;;;;;;;5064385;28;20025;-69
2021/08/17 03:37:28;;;;;;;9.20;7.70;;;;;;;;;;5059567;28;20033;-69
2021/08/17 03:39:54;;;;;;;9.77;8.18;;;;;;;;;;5068309;28;20195;-69
2021/08/17 03:42:21;;;;;;;10.25;8.20;;;;;;;;;;5061735;28;20230;-70
2021/08/17 03:44:47;;;;;;;9.68;8.50;;;;;;;;;;5059154;28;20768;-70
2021/08/17 03:47:13;;;;;;;8.98;8.10;;;;;;;;;;5059607;28;20024;-69
2021/08/17 03:49:39;;;;;;;9.55;8.40;;;;;;;;;;5062286;28;20036;-69
2021/08/17 03:52:05;;;;;;;11.07;8.93;;;;;;;;;;5065377;28;20043;-69
2021/08/17 03:54:31;;;;;;;9.40;8.45;;;;;;;;;;5063135;28;20109;-73
2021/08/17 03:56:58;;;;;;;12.90;9.02;;;;;;;;;;5058428;28;20055;-69
2021/08/17 03:59:24;;;;;;;10.23;8.60;;;;;;;;;;5064431;28;20084;-68
2021/08/17 04:01:50;;;;;;;11.82;8.43;;;;;;;;;;5059642;28;20033;-69
2021/08/17 04:04:16;;;;;;;9.50;8.52;;;;;;;;;;5064369;28;20024;-69
2021/08/17 04:06:42;;;;;;;10.43;8.80;;;;;;;;;;5064506;28;20092;-69
2021/08/17 04:09:08;;;;;;;9.10;8.13;;;;;;;;;;5065135;28;20028;-70
2021/08/17 04:11:35;;;;;;;9.65;8.75;;;;;;;;;;5064408;28;20703;-70
2021/08/17 04:14:01;;;;;;;12.40;8.73;;;;;;;;;;5065468;28;20777;-69
2021/08/17 04:16:27;;;;;;;9.20;8.30;;;;;;;;;;5065429;28;20085;-69
2021/08/17 04:18:53;;;;;;;13.32;9.00;;;;;;;;;;5060555;28;20059;-69
2021/08/17 04:21:20;;;;;;;12.60;8.40;;;;;;;;;;5063105;28;20053;-70
2021/08/17 04:23:48;;;;;;;8.88;7.97;;;;;;;;;;5067354;28;20077;-69
2021/08/17 04:26:14;;;;;;;12.75;8.85;;;;;;;;;;5067538;28;20144;-69
2021/08/17 04:28:40;;;;;;;9.18;8.27;;;;;;;;;;5065077;28;20020;-69
2021/08/17 04:31:06;;;;;;;9.73;8.73;;;;;;;;;;5060252;28;20028;-69
2021/08/17 04:33:32;;;;;;;9.07;8.18;;;;;;;;;;5066450;28;20016;-69
2021/08/17 04:36:01;;;;;;;8.75;7.97;;;;;;;;;;5062581;28;20105;-70
2021/08/17 04:38:27;;;;;;;10.45;9.00;;;;;;;;;;5062764;28;20021;-69
2021/08/17 04:40:56;;;;;;;8.90;8.13;;;;;;;;;;5066927;28;20033;-69
2021/08/17 04:43:22;;;;;;;8.68;7.47;;;;;;;;;;5064135;28;20555;-69
2021/08/17 04:45:52;;;;;;;10.93;8.20;;;;;;;;;;5066246;28;20028;-69
2021/08/17 04:48:18;;;;;;;8.55;7.20;;;;;;;;;;5068188;28;20032;-69
2021/08/17 04:50:44;;;;;;;10.93;8.65;;;;;;;;;;5064258;28;20092;-69
2021/08/17 04:53:11;;;;;;;12.52;7.90;;;;;;;;;;5067201;28;20043;-69
2021/08/17 04:55:37;;;;;;;9.05;8.15;;;;;;;;;;5063931;28;20073;-70
2021/08/17 04:58:04;;;;;;;9.32;8.18;;;;;;;;;;5066788;28;20039;-69
2021/08/17 05:00:31;;;;;;;8.60;7.60;;;;;;;;;;5070553;28;20032;-69
2021/08/17 05:02:58;;;;;;;9.95;7.95;;;;;;;;;;5068169;28;20104;-69
2021/08/17 05:05:25;;;;;;;14.68;8.48;;;;;;;;;;5068016;28;20103;-69
2021/08/17 05:07:51;;;;;;;8.93;8.02;;;;;;;;;;5067684;28;20028;-69
2021/08/17 05:10:18;;;;;;;11.38;8.23;;;;;;;;;;5069896;28;20392;-69
2021/08/17 05:12:44;;;;;;;10.45;8.35;;;;;;;;;;5068715;28;20051;-71
2021/08/17 05:15:11;;;;;;;9.02;8.13;;;;;;;;;;5069909;28;20476;-69
2021/08/17 05:17:38;;;;;;;8.27;7.47;;;;;;;;;;5066474;28;20512;-69
2021/08/17 05:20:05;;;;;;;8.25;7.45;;;;;;;;;;5067166;28;20114;-70
2021/08/17 05:22:31;;;;;;;11.75;8.02;;;;;;;;;;5066016;28;20044;-69
2021/08/17 05:24:57;;;;;;;9.35;8.27;;;;;;;;;;5073621;28;20012;-69
2021/08/17 05:27:24;;;;;;;10.18;8.27;;;;;;;;;;5065316;28;20099;-69
2021/08/17 05:29:52;;;;;;;9.00;7.40;;;;;;;;;;5069569;28;20626;-69
2021/08/17 05:32:18;;;;;;;10.27;7.57;;;;;;;;;;5065768;28;20025;-69
2021/08/17 05:34:44;;;;;;;10.40;7.55;;;;;;;;;;5069845;28;20024;-69
2021/08/17 05:37:11;;;;;;;9.75;7.95;;;;;;;;;;5071876;28;20027;-70
2021/08/17 05:39:37;;;;;;;10.32;8.00;;;;;;;;;;5067940;28;20442;-69
2021/08/17 05:42:03;;;;;;;12.70;8.43;;;;;;;;;;5069809;28;20052;-69
2021/08/17 05:44:29;;;;;;;10.90;8.20;;;;;;;;;;5070294;28;20025;-69
2021/08/17 05:46:55;;;;;;;11.55;8.55;;;;;;;;;;5071386;28;20016;-71
2021/08/17 05:49:21;;;;;;;9.35;7.53;;;;;;;;;;5065323;28;20029;-68
2021/08/17 05:51:48;;;;;;;10.25;7.50;;;;;;;;;;5070070;28;20026;-69
2021/08/17 05:54:14;;;;;;;11.27;8.15;;;;;;;;;;5068555;28;20034;-69
2021/08/17 05:56:40;;;;;;;11.48;8.63;;;;;;;;;;5070326;28;20037;-69
2021/08/17 05:59:06;;;;;;;11.60;9.25;;;;;;;;;;5072508;28;20024;-68
2021/08/17 06:01:32;;;;;;;13.20;9.40;;;;;;;;;;5067843;28;20032;-68
2021/08/17 06:03:58;;;;;;;10.68;9.68;;;;;;;;;;5071463;28;20255;-69
2021/08/17 06:06:25;;;;;;;12.55;9.00;;;;;;;;;;5066281;28;20028;-70
2021/08/17 06:08:51;;;;;;;10.07;8.77;;;;;;;;;;5072442;28;20031;-69
2021/08/17 06:11:17;;;;;;;10.27;9.10;;;;;;;;;;5069908;28;20029;-69
2021/08/17 06:13:44;;;;;;;10.52;9.30;;;;;;;;;;5066782;28;20025;-69
2021/08/17 06:16:10;;;;;;;9.82;8.27;;;;;;;;;;5070461;28;20031;-71
2021/08/17 06:18:36;;;;;;;9.90;8.90;;;;;;;;;;5066051;28;20044;-72
2021/08/17 06:21:02;;;;;;;9.95;8.98;;;;;;;;;;5070721;28;20035;-71
2021/08/17 06:23:28;;;;;;;9.30;8.23;;;;;;;;;;5072675;28;20022;-71
2021/08/17 06:25:55;;;;;;;11.25;8.63;;;;;;;;;;5069697;28;20051;-72
2021/08/17 06:28:21;;;;;;;10.30;6.68;;;;;;;;;;5068514;28;20035;-71
2021/08/17 06:30:47;;;;;;;17.95;7.40;;;;;;;;;;5061773;28;20115;-71
2021/08/17 06:33:13;;;;;;;11.02;6.53;;;;;;;;;;5066321;28;20038;-73
2021/08/17 06:35:39;;;;;;;13.02;7.35;;;;;;;;;;5065187;28;20036;-71
2021/08/17 06:38:05;;;;;;;8.15;6.53;;;;;;;;;;5067593;28;20120;-71
2021/08/17 06:40:32;;;;;;;10.18;6.93;;;;;;;;;;5068256;28;20418;-71
2021/08/17 06:42:58;;;;;;;15.05;7.40;;;;;;;;;;5065885;28;20208;-71
2021/08/17 06:45:24;;;;;;;10.88;7.00;;;;;;;;;;5067349;28;20107;-72
2021/08/17 06:47:52;;;;;;;14.95;7.03;;;;;;;;;;5060718;28;20029;-71
2021/08/17 06:50:18;;;;;;;13.07;7.20;;;;;;;;;;5067547;28;20468;-73
2021/08/17 06:52:45;;;;;;;15.93;7.68;;;;;;;;;;5063856;28;20024;-73
2021/08/17 06:55:11;;;;;;;13.60;6.65;;;;;;;;;;5064848;28;20416;-71
2021/08/17 06:57:38;;;;;;;10.50;6.68;;;;;;;;;;5068680;28;20032;-71
2021/08/17 07:00:05;;;;;;;13.80;7.93;;;;;;;;;;5066201;28;20024;-71
2021/08/17 07:02:31;;;;;;;9.50;7.20;;;;;;;;;;5067219;28;20023;-71
2021/08/17 07:04:57;;;;;;;15.32;8.55;;;;;;;;;;5064267;28;20032;-72
2021/08/17 07:07:24;;;;;;;14.52;8.55;;;;;;;;;;5069019;28;20024;-71
2021/08/17 07:09:50;;;;;;;11.00;7.32;;;;;;;;;;5066035;28;20399;-71
2021/08/17 07:12:16;;;;;;;12.13;7.55;;;;;;;;;;5069833;28;20533;-70
2021/08/17 07:14:42;;;;;;;10.80;7.40;;;;;;;;;;5067726;28;20148;-71
2021/08/17 07:17:08;;;;;;;10.02;6.97;;;;;;;;;;5062200;28;20036;-71
2021/08/17 07:19:34;;;;;;;14.65;8.23;;;;;;;;;;5064858;28;20045;-74
2021/08/17 07:22:01;;;;;;;11.23;7.13;;;;;;;;;;5074161;28;20481;-72
2021/08/17 07:24:28;;;;;;;11.25;7.72;;;;;;;;;;5063220;28;20359;-72
2021/08/17 07:26:54;;;;;;;11.73;7.88;;;;;;;;;;5059434;28;20024;-72
2021/08/17 07:29:21;;;;;;;13.93;7.97;;;;;;;;;;5058179;28;20028;-73
2021/08/17 07:31:47;;;;;;;14.05;7.07;;;;;;;;;;5060788;28;20031;-73
2021/08/17 07:34:13;;;;;;;12.00;7.20;;;;;;;;;;5061151;28;20378;-72
2021/08/17 07:36:39;;;;;;;14.93;6.10;;;;;;;;;;5064784;28;20542;-72
2021/08/17 07:39:06;;;;;;;12.88;6.13;;;;;;;;;;5058120;28;20021;-72
2021/08/17 07:41:33;;;;;;;16.48;5.72;;;;;;;;;;5060931;28;20024;-74
2021/08/17 07:44:00;;;;;;;14.70;5.82;;;;;;;;;;5063235;28;20033;-71
2021/08/17 07:46:26;;;;;;;14.32;5.88;;;;;;;;;;5062467;28;20111;-72
2021/08/17 07:48:52;;;;;;;12.63;5.88;;;;;;;;;;5062719;28;20387;-72
2021/08/17 07:51:20;;;;;;;15.15;5.80;;;;;;;;;;5064200;28;20024;-72
2021/08/17 07:53:46;;;;;;;15.52;5.72;;;;;;;;;;5071046;28;20086;-72
2021/08/17 07:56:12;;;;;;;13.85;5.93;;;;;;;;;;5068878;28;20036;-72
2021/08/17 07:58:39;;;;;;;13.38;5.85;;;;;;;;;;5062588;28;20021;-72
2021/08/17 08:01:05;;;;;;;14.02;5.45;;;;;;;;;;5061597;28;20029;-72
2021/08/17 08:03:33;;;;;;;18.95;6.40;;;;;;;;;;5066200;28;20123;-72
2021/08/17 08:06:00;;;;;;;15.73;6.45;;;;;;;;;;5064961;28;20036;-73
2021/08/17 08:08:26;;;;;;;13.43;6.55;;;;;;;;;;5063727;28;20031;-73
2021/08/17 08:10:53;;;;;;;19.63;6.03;;;;;;;;;;5063730;28;20033;-73
2021/08/17 08:13:19;;;;;;;15.27;5.90;;;;;;;;;;5066093;28;20039;-75
2021/08/17 08:15:45;;;;;;;13.68;5.55;;;;;;;;;;5068695;28;20119;-73
2021/08/17 08:18:11;;;;;;;15.70;5.88;;;;;;;;;;5067876;28;20020;-72
2021/08/17 08:20:37;;;;;;;15.23;6.10;;;;;;;;;;5068993;28;20045;-72
2021/08/17 08:23:05;;;;;;;13.43;5.68;;;;;;;;;;5067150;28;20024;-72
2021/08/17 08:25:32;;;;;;;18.02;6.13;;;;;;;;;;5065689;28;20633;-72
2021/08/17 08:27:58;;;;;;;17.85;6.20;;;;;;;;;;5066311;28;20020;-73
2021/08/17 08:30:25;;;;;;;17.08;6.00;;;;;;;;;;5067178;28;20465;-74
2021/08/17 08:32:51;;;;;;;17.42;5.95;;;;;;;;;;5071708;28;20027;-72
2021/08/17 08:35:17;;;;;;;14.60;5.95;;;;;;;;;;5067440;28;20028;-72
2021/08/17 08:37:43;;;;;;;16.58;5.30;;;;;;;;;;5065096;28;20040;-71
2021/08/17 08:40:10;;;;;;;13.68;5.03;;;;;;;;;;5070175;28;20026;-71
2021/08/17 08:42:36;;;;;;;10.27;5.47;;;;;;;;;;5066613;28;20503;-71
2021/08/17 08:45:03;;;;;;;12.52;5.43;;;;;;;;;;5065761;28;20119;-71
2021/08/17 08:47:30;;;;;;;20.65;5.82;;;;;;;;;;5067130;28;20012;-71
2021/08/17 08:49:56;;;;;;;14.98;5.32;;;;;;;;;;5061899;28;20089;-71
2021/08/17 08:52:22;;;;;;;12.85;5.25;;;;;;;;;;5069355;28;20119;-72
2021/08/17 08:54:48;;;;;;;15.35;5.78;;;;;;;;;;5066029;28;20024;-71
2021/08/17 08:57:15;;;;;;;13.38;5.72;;;;;;;;;;5068474;28;20032;-72
2021/08/17 08:59:41;;;;;;;19.65;5.45;;;;;;;;;;5065529;28;20086;-73
2021/08/17 09:02:08;;;;;;;17.05;5.30;;;;;;;;;;5069029;28;20488;-72
2021/08/17 09:04:35;;;;;;;17.73;6.28;;;;;;;;;;5067678;28;20086;-73
2021/08/17 09:07:01;;;;;;;11.77;5.22;;;;;;;;;;5068376;28;20651;-72
2021/08/17 09:09:29;;;;;;;14.63;5.28;;;;;;;;;;5066403;28;20433;-73
2021/08/17 09:11:56;;;;;;;18.58;5.22;;;;;;;;;;5065059;28;20070;-73
2021/08/17 09:14:24;;;;;;;17.08;5.60;;;;;;;;;;5069522;28;20036;-75
2021/08/17 09:16:53;;;;;;;15.07;5.47;;;;;;;;;;5068332;28;20040;-72
2021/08/17 09:19:22;;;;;;;20.55;5.63;;;;;;;;;;5067969;28;20048;-73
2021/08/17 09:21:48;;;;;;;15.10;5.80;;;;;;;;;;5065904;28;20108;-73
2021/08/17 09:24:30;;;;;;;13.80;5.72;;;;;;;;;;5065961;28;20074;-73
2021/08/17 09:26:57;;;;;;;15.82;6.00;;;;;;;;;;5066480;28;20098;-73
2021/08/17 09:29:28;;;;;;;17.08;6.25;;;;;;;;;;5068026;28;20100;-73
2021/08/17 09:31:55;;;;;;;12.15;6.40;;;;;;;;;;5065691;28;20077;-72
2021/08/17 09:34:24;;;;;;;12.50;6.13;;;;;;;;;;5066788;28;20187;-73
2021/08/17 09:36:50;;;;;;;15.18;6.18;;;;;;;;;;5070215;28;20078;-72
2021/08/17 09:39:46;;;;;;;19.17;6.45;;;;;;;;;;5064277;28;20028;-73
2021/08/17 09:42:23;;;;;;;17.30;6.68;;;;;;;;;;5065830;28;20574;-75
2021/08/17 09:45:08;;;;;;;20.23;7.10;;;;;;;;;;5065993;28;20024;-73
2021/08/17 09:47:39;;;;;;;18.67;6.18;;;;;;;;;;5063509;28;20020;-72
2021/08/17 09:50:18;;;;;;;15.90;5.95;;;;;;;;;;5067843;28;20088;-73
2021/08/17 09:52:45;;;;;;;14.52;5.90;;;;;;;;;;5067508;28;20016;-73
2021/08/17 09:55:18;;;;;;;19.98;6.88;;;;;;;;;;5067763;28;20129;-73
2021/08/17 09:57:45;;;;;;;22.10;6.80;;;;;;;;;;5068221;28;20506;-72
2021/08/17 10:00:15;;;;;;;13.73;6.20;;;;;;;;;;5063783;28;20514;-72
2021/08/17 10:02:48;;;;;;;17.27;6.07;;;;;;;;;;5066070;28;20095;-72
2021/08/17 10:05:15;;;;;;;19.67;6.45;;;;;;;;;;5063883;28;20827;-72
2021/08/17 10:07:42;;;;;;;15.10;6.57;;;;;;;;;;5066720;28;20024;-71
2021/08/17 10:10:09;;;;;;;13.85;6.10;;;;;;;;;;5067154;28;20152;-73
2021/08/17 10:12:36;;;;;;;17.27;6.25;;;;;;;;;;5066885;28;20032;-72
2021/08/17 10:15:03;;;;;;;14.00;6.40;;;;;;;;;;5068443;28;20568;-72
2021/08/17 10:17:29;;;;;;;17.13;6.30;;;;;;;;;;5064945;28;20112;-72
2021/08/17 10:19:56;;;;;;;19.33;7.05;;;;;;;;;;5067806;28;20073;-72
2021/08/17 10:22:22;;;;;;;18.55;6.43;;;;;;;;;;5062877;28;20029;-72
2021/08/17 10:24:49;;;;;;;24.00;7.45;;;;;;;;;;5066683;28;20039;-72
2021/08/17 10:27:30;;;;;;;18.80;6.05;;;;;;;;;;5061944;28;20032;-72
2021/08/17 10:30:14;;;;;;;16.02;6.40;;;;;;;;;;5067788;28;20426;-71
2021/08/17 10:32:43;;;;;;;19.40;6.68;;;;;;;;;;5066412;28;20079;-71
2021/08/17 10:35:34;;;;;;;19.98;7.13;;;;;;;;;;5066950;28;20448;-76
2021/08/17 10:38:09;;;;;;;18.88;7.20;;;;;;;;;;5067059;28;20024;-72
2021/08/17 10:40:51;;;;;;;18.75;6.55;;;;;;;;;;5065155;28;20138;-73
2021/08/17 10:43:20;;;;;;;24.95;7.25;;;;;;;;;;5067654;28;20386;-73
2021/08/17 10:45:50;;;;;;;19.23;7.05;;;;;;;;;;5065085;28;20369;-72
2021/08/17 10:48:35;;;;;;;19.30;7.05;;;;;;;;;;5064348;28;20024;-72
2021/08/17 10:51:02;;;;;;;21.88;7.40;;;;;;;;;;5066955;28;20035;-71
2021/08/17 10:53:38;;;;;;;24.60;7.30;;;;;;;;;;5064650;28;20376;-72
2021/08/17 10:56:13;;;;;;;23.73;7.82;;;;;;;;;;5071891;28;20102;-74
2021/08/17 10:58:40;;;;;;;35.35;7.93;;;;;;;;;;5066848;28;20047;-73
2021/08/17 11:01:06;;;;;;;17.55;7.10;;;;;;;;;;5065731;28;20228;-73
2021/08/17 11:03:37;;;;;;;44.22;9.40;;;;;;;;;;5065306;28;20446;-73
2021/08/17 11:06:03;;;;;;;17.35;7.05;;;;;;;;;;5067436;28;20098;-74
2021/08/17 11:08:32;;;;;;;29.27;6.80;;;;;;;;;;5067506;28;20028;-74
2021/08/17 11:11:03;;;;;;;19.13;6.18;;;;;;;;;;5062532;28;20421;-73
2021/08/17 11:13:29;;;;;;;26.40;7.03;;;;;;;;;;5067869;28;20024;-74
2021/08/17 11:16:13;;;;;;;17.48;6.70;;;;;;;;;;5069706;28;20027;-72
2021/08/17 11:18:52;;;;;;;13.80;5.95;;;;;;;;;;5069500;28;20041;-72
2021/08/17 11:21:39;;;;;;;11.23;5.13;;;;;;;;;;5072384;28;20515;-72
2021/08/17 11:24:13;;;;;;;17.13;5.15;;;;;;;;;;5071718;28;20035;-72
2021/08/17 11:26:41;;;;;;;15.23;5.65;;;;;;;;;;5070735;28;20522;-72
2021/08/17 11:29:08;;;;;;;15.30;5.13;;;;;;;;;;5071003;28;20078;-73
2021/08/17 11:31:43;;;;;;;12.50;4.35;;;;;;;;;;5072975;28;20039;-72
2021/08/17 11:34:12;;;;;;;11.90;4.93;;;;;;;;;;5068317;28;20021;-72
2021/08/17 11:36:38;;;;;;;13.40;4.47;;;;;;;;;;5073326;28;20277;-73
2021/08/17 11:39:37;;;;;;;12.10;4.47;;;;;;;;;;5069452;28;20035;-73
2021/08/17 11:42:11;;;;;;;9.45;4.43;;;;;;;;;;5039328;28;20036;-72
2021/08/17 11:44:37;;;;;;;10.95;3.40;;;;;;;;;;5070956;28;20037;-72
2021/08/17 11:47:04;;;;;;;11.45;3.83;;;;;;;;;;5073614;28;20028;-74
2021/08/17 11:49:31;;;;;;;14.50;4.35;;;;;;;;;;5074107;28;20032;-72
2021/08/17 11:52:01;;;;;;;10.07;3.97;;;;;;;;;;5072306;28;20020;-73
2021/08/17 11:54:27;;;;;;;11.37;4.53;;;;;;;;;;5067035;28;20127;-75
2021/08/17 11:56:57;;;;;;;8.20;3.72;;;;;;;;;;5074010;28;21199;-72
2021/08/17 11:59:24;;;;;;;9.25;4.38;;;;;;;;;;5071934;28;20028;-72
2021/08/17 12:02:01;;;;;;;9.48;3.97;;;;;;;;;;5068768;28;20473;-73
2021/08/17 12:04:27;;;;;;;9.60;3.55;;;;;;;;;;5071532;28;20027;-73
2021/08/17 12:07:06;;;;;;;11.80;4.10;;;;;;;;;;5068576;28;20082;-72
2021/08/17 12:09:36;;;;;;;10.70;3.78;;;;;;;;;;5071627;28;20042;-72
2021/08/17 12:12:02;;;;;;;10.95;4.15;;;;;;;;;;5068114;28;20021;-71
2021/08/17 12:14:28;;;;;;;11.55;4.18;;;;;;;;;;5074281;28;20024;-71
2021/08/17 12:16:54;;;;;;;12.73;4.15;;;;;;;;;;5069695;28;20032;-72
2021/08/17 12:19:21;;;;;;;12.75;3.75;;;;;;;;;;5067326;28;20104;-71
2021/08/17 12:21:47;;;;;;;7.78;3.35;;;;;;;;;;5074043;28;20099;-71
2021/08/17 12:24:30;;;;;;;18.55;4.18;;;;;;;;;;5071636;28;20208;-71
2021/08/17 12:27:01;;;;;;;18.30;4.78;;;;;;;;;;5069133;28;20051;-71
2021/08/17 12:29:38;;;;;;;11.93;3.90;;;;;;;;;;5070432;28;20024;-71
2021/08/17 12:32:17;;;;;;;6.72;3.67;;;;;;;;;;5071384;28;20021;-71
2021/08/17 12:34:44;;;;;;;10.98;3.92;;;;;;;;;;5072895;28;20024;-72
2021/08/17 12:37:25;;;;;;;9.48;3.67;;;;;;;;;;5067428;28;20481;-71
2021/08/17 12:39:55;;;;;;;10.73;4.07;;;;;;;;;;5072190;28;20024;-72
2021/08/17 12:42:22;;;;;;;9.13;4.35;;;;;;;;;;5074436;28;20020;-71
2021/08/17 12:44:51;;;;;;;8.40;3.97;;;;;;;;;;5070108;28;20027;-71
2021/08/17 12:47:20;;;;;;;13.00;3.70;;;;;;;;;;5070048;28;20016;-72
2021/08/17 12:49:46;;;;;;;11.30;3.78;;;;;;;;;;5066060;28;20077;-72
2021/08/17 12:52:18;;;;;;;15.10;4.05;;;;;;;;;;5068015;28;20047;-72
2021/08/17 12:54:44;;;;;;;10.45;4.07;;;;;;;;;;5070133;28;20036;-71
2021/08/17 12:57:10;;;;;;;8.13;4.20;;;;;;;;;;5072880;28;20156;-71
2021/08/17 12:59:38;;;;;;;12.32;4.18;;;;;;;;;;5066188;28;20029;-72
2021/08/17 13:02:04;;;;;;;9.15;4.07;;;;;;;;;;5070862;28;20090;-72
2021/08/17 13:04:30;;;;;;;10.88;4.72;;;;;;;;;;5069030;28;20017;-73
2021/08/17 13:06:56;;;;;;;11.80;4.18;;;;;;;;;;5071566;28;20045;-72
2021/08/17 13:09:22;;;;;;;12.27;4.53;;;;;;;;;;5071270;28;20023;-72
2021/08/17 13:11:49;;;;;;;11.13;5.10;;;;;;;;;;5070723;28;20281;-73
2021/08/17 13:14:15;;;;;;;12.05;4.57;;;;;;;;;;5069685;28;20039;-71
2021/08/17 13:16:41;;;;;;;11.07;4.03;;;;;;;;;;5068582;28;20036;-72
2021/08/17 13:19:07;;;;;;;11.88;5.03;;;;;;;;;;5069318;28;20043;-72
2021/08/17 13:21:33;;;;;;;15.65;4.15;;;;;;;;;;5070081;28;20040;-72
2021/08/17 13:24:00;;;;;;;16.73;4.60;;;;;;;;;;5072835;28;20038;-73
2021/08/17 13:26:26;;;;;;;8.10;4.07;;;;;;;;;;5071261;28;20418;-73
2021/08/17 13:28:53;;;;;;;14.75;4.80;;;;;;;;;;5066320;28;20473;-74
2021/08/17 13:31:19;;;;;;;13.68;4.65;;;;;;;;;;5072201;28;20028;-72
2021/08/17 13:33:45;;;;;;;11.05;4.30;;;;;;;;;;5068539;28;20016;-72
2021/08/17 13:36:11;;;;;;;9.50;4.30;;;;;;;;;;5069451;28;20041;-74
2021/08/17 13:38:37;;;;;;;9.65;3.97;;;;;;;;;;5068577;28;20085;-72
2021/08/17 13:41:03;;;;;;;15.25;5.38;;;;;;;;;;5066645;28;20055;-73
2021/08/17 13:43:30;;;;;;;16.35;4.53;;;;;;;;;;5070476;28;20020;-72
2021/08/17 13:45:58;;;;;;;12.18;4.50;;;;;;;;;;5067613;28;20115;-71
2021/08/17 13:48:25;;;;;;;9.82;3.83;;;;;;;;;;5071749;28;20024;-71
2021/08/17 13:50:51;;;;;;;9.23;4.63;;;;;;;;;;5069020;28;20967;-73
2021/08/17 13:53:17;;;;;;;17.95;4.60;;;;;;;;;;5064717;28;20392;-71
2021/08/17 13:55:43;;;;;;;15.70;4.53;;;;;;;;;;5070957;28;20464;-71
2021/08/17 13:58:09;;;;;;;15.55;5.30;;;;;;;;;;5065527;28;20577;-72
2021/08/17 14:00:36;;;;;;;16.75;5.32;;;;;;;;;;5068182;28;20131;-71
2021/08/17 14:03:03;;;;;;;16.30;4.75;;;;;;;;;;5066520;28;20147;-71
2021/08/17 14:05:29;;;;;;;13.90;5.03;;;;;;;;;;5070229;28;20105;-71
2021/08/17 14:07:55;;;;;;;15.60;5.43;;;;;;;;;;5069521;28;20024;-72
2021/08/17 14:10:21;;;;;;;14.70;5.60;;;;;;;;;;5066040;28;20106;-71
2021/08/17 14:12:47;;;;;;;17.52;4.88;;;;;;;;;;5067764;28;20152;-71
2021/08/17 14:15:14;;;;;;;13.20;4.88;;;;;;;;;;5065550;28;20028;-71
2021/08/17 14:17:40;;;;;;;18.52;5.95;;;;;;;;;;5070355;28;20439;-71
2021/08/17 14:20:07;;;;;;;17.17;5.40;;;;;;;;;;5069832;28;20097;-71
2021/08/17 14:22:33;;;;;;;18.27;5.53;;;;;;;;;;5064936;28;20032;-72
2021/08/17 14:24:59;;;;;;;22.73;4.53;;;;;;;;;;5070036;28;20020;-71
2021/08/17 14:27:25;;;;;;;16.92;4.97;;;;;;;;;;5065925;28;20056;-72
2021/08/17 14:29:51;;;;;;;17.70;5.38;;;;;;;;;;5067301;28;20027;-71
2021/08/17 14:32:18;;;;;;;11.20;4.32;;;;;;;;;;5065084;28;20037;-72
2021/08/17 14:34:44;;;;;;;14.40;4.35;;;;;;;;;;5068210;28;20133;-71
2021/08/17 14:37:10;;;;;;;16.42;4.70;;;;;;;;;;5070802;28;20036;-71